createdAt,value
2018-10-07T00:01:44.400Z,97785.52
2018-10-07T00:04:12.714Z,97785.81
2018-10-07T00:06:41.020Z,97781.35
2018-10-07T00:09:09.802Z,97781.52
2018-10-07T00:11:38.288Z,97782.85
2018-10-07T00:14:06.764Z,97781.69
2018-10-07T00:16:35.128Z,97786.77
2018-10-07T00:19:03.513Z,97789.12
2018-10-07T00:21:31.860Z,97788.88
2018-10-07T00:24:00.220Z,97793.65
2018-10-07T00:26:28.486Z,97795.52
2018-10-07T00:28:56.819Z,97803.33
2018-10-07T00:31:25.197Z,97798.97
2018-10-07T00:33:53.529Z,97810.75
2018-10-07T00:36:21.847Z,97812.16
2018-10-07T00:38:50.108Z,97808.34
2018-10-07T00:41:18.532Z,97811.13
2018-10-07T00:43:46.916Z,97816.30
2018-10-07T00:46:15.275Z,97822.27
2018-10-07T00:48:43.642Z,97826.71
2018-10-07T00:51:12.009Z,97821.10
2018-10-07T00:53:40.338Z,97826.11
2018-10-07T00:56:08.841Z,97827.27
2018-10-07T00:58:37.176Z,97823.76
2018-10-07T01:01:05.516Z,97818.34
2018-10-07T01:03:33.799Z,97822.56
2018-10-07T01:06:02.092Z,97824.13
2018-10-07T01:08:30.412Z,97819.77
2018-10-07T01:10:58.907Z,97815.69
2018-10-07T01:13:27.194Z,97815.38
2018-10-07T01:15:55.568Z,97816.09
2018-10-07T01:18:23.924Z,97811.16
2018-10-07T01:20:52.335Z,97810.78
2018-10-07T01:23:20.664Z,97812.65
2018-10-07T01:25:48.979Z,97821.08
2018-10-07T01:28:17.276Z,97817.39
2018-10-07T01:30:45.541Z,97820.05
2018-10-07T01:33:13.848Z,97821.93
2018-10-07T01:35:42.367Z,97822.14
2018-10-07T01:38:10.761Z,97822.55
2018-10-07T01:40:39.078Z,97822.07
2018-10-07T01:43:07.467Z,97819.65
2018-10-07T01:45:35.970Z,97829.27
2018-10-07T01:48:04.472Z,97823.64
2018-10-07T01:50:32.751Z,97815.90
2018-10-07T01:53:01.106Z,97825.12
2018-10-07T01:55:29.554Z,97825.91
2018-10-07T01:57:57.895Z,97832.66
2018-10-07T02:00:26.196Z,97831.56
2018-10-07T02:02:54.490Z,97836.47
2018-10-07T02:05:22.887Z,97836.09
2018-10-07T02:07:51.201Z,97835.14
2018-10-07T02:10:19.522Z,97829.98
2018-10-07T02:12:47.822Z,97830.94
2018-10-07T02:15:22.403Z,97833.93
2018-10-07T02:17:50.700Z,97835.80
2018-10-07T02:20:18.986Z,97835.48
2018-10-07T02:22:47.296Z,97836.25
2018-10-07T02:25:15.702Z,97841.89
2018-10-07T02:27:44.441Z,97842.12
2018-10-07T02:30:12.793Z,97848.98
2018-10-07T02:32:41.085Z,97847.59
2018-10-07T02:35:09.547Z,97855.25
2018-10-07T02:37:38.021Z,97851.48
2018-10-07T02:40:06.375Z,97855.47
2018-10-07T02:42:34.705Z,97853.57
2018-10-07T02:45:03.181Z,97864.34
2018-10-07T02:47:31.618Z,97861.44
2018-10-07T02:50:00.006Z,97867.91
2018-10-07T02:52:33.768Z,97864.88
2018-10-07T02:55:02.127Z,97867.69
2018-10-07T02:57:30.476Z,97875.08
2018-10-07T02:59:58.989Z,97870.46
2018-10-07T03:02:27.232Z,97869.23
2018-10-07T03:04:55.493Z,97877.25
2018-10-07T03:07:23.977Z,97881.70
2018-10-07T03:09:52.311Z,97871.30
2018-10-07T03:12:20.631Z,97870.55
2018-10-07T03:14:48.880Z,97879.69
2018-10-07T03:17:17.185Z,97878.19
2018-10-07T03:19:45.794Z,97882.85
2018-10-07T03:22:14.096Z,97887.63
2018-10-07T03:24:42.382Z,97883.72
2018-10-07T03:27:10.713Z,97883.50
2018-10-07T03:29:39.099Z,97884.50
2018-10-07T03:32:07.626Z,97883.09
2018-10-07T03:34:36.091Z,97880.47
2018-10-07T03:37:04.465Z,97888.45
2018-10-07T03:39:32.769Z,97891.59
2018-10-07T03:42:01.082Z,97893.20
2018-10-07T03:44:29.412Z,97897.95
2018-10-07T03:46:57.772Z,97910.22
2018-10-07T03:49:26.044Z,97912.02
2018-10-07T03:51:54.576Z,97916.45
2018-10-07T03:54:23.016Z,97923.55
2018-10-07T03:56:51.291Z,97919.30
2018-10-07T03:59:19.603Z,97928.72
2018-10-07T04:01:48.035Z,97928.37
2018-10-07T04:04:16.385Z,97929.42
2018-10-07T04:06:44.716Z,97926.20
2018-10-07T04:09:13.312Z,97933.76
2018-10-07T04:11:42.999Z,97931.35
2018-10-07T04:14:12.521Z,97936.11
2018-10-07T04:16:40.887Z,97938.30
2018-10-07T04:19:10.246Z,97940.61
2018-10-07T04:21:38.535Z,97945.15
2018-10-07T04:24:07.003Z,97949.30
2018-10-07T04:26:35.279Z,97948.83
2018-10-07T04:29:03.563Z,97952.34
2018-10-07T04:31:32.037Z,97959.69
2018-10-07T04:34:00.327Z,97956.91
2018-10-07T04:36:28.910Z,97953.67
2018-10-07T04:38:57.167Z,97952.27
2018-10-07T04:41:25.576Z,97956.84
2018-10-07T04:43:53.918Z,97952.11
2018-10-07T04:46:22.504Z,97947.36
2018-10-07T04:48:50.688Z,97948.78
2018-10-07T04:51:19.832Z,97951.00
2018-10-07T04:53:48.088Z,97945.41
2018-10-07T04:56:16.380Z,97948.52
2018-10-07T04:58:44.669Z,97949.33
2018-10-07T05:01:13.154Z,97954.29
2018-10-07T05:03:41.728Z,97958.17
2018-10-07T05:06:10.067Z,97956.47
2018-10-07T05:08:38.695Z,97960.83
2018-10-07T05:11:07.051Z,97959.24
2018-10-07T05:13:44.001Z,97961.72
2018-10-07T05:16:14.806Z,97967.88
2018-10-07T05:18:43.982Z,97964.38
2018-10-07T05:21:12.518Z,97964.94
2018-10-07T05:23:40.855Z,97973.98
2018-10-07T05:26:09.858Z,97976.45
2018-10-07T05:28:38.172Z,97979.69
2018-10-07T05:31:06.841Z,97982.00
2018-10-07T05:33:35.201Z,97985.55
2018-10-07T05:36:03.524Z,97992.36
2018-10-07T05:38:31.869Z,98002.02
2018-10-07T05:41:00.160Z,98008.92
2018-10-07T05:43:28.438Z,98010.41
2018-10-07T05:45:56.716Z,98012.32
2018-10-07T05:48:24.988Z,98016.75
2018-10-07T05:50:53.335Z,98022.43
2018-10-07T05:53:21.619Z,98018.86
2018-10-07T05:55:50.214Z,98024.14
2018-10-07T05:58:18.684Z,98023.94
2018-10-07T06:00:47.162Z,98028.98
2018-10-07T06:03:29.770Z,98023.79
2018-10-07T06:05:58.214Z,98031.21
2018-10-07T06:08:26.574Z,98038.30
2018-10-07T06:10:55.171Z,98039.80
2018-10-07T06:13:23.599Z,98048.59
2018-10-07T06:15:51.893Z,98048.81
2018-10-07T06:18:20.241Z,98052.35
2018-10-07T06:20:48.592Z,98058.16
2018-10-07T06:23:16.871Z,98061.20
2018-10-07T06:25:45.319Z,98065.47
2018-10-07T06:28:13.616Z,98063.97
2018-10-07T06:30:42.013Z,98068.14
2018-10-07T06:33:10.485Z,98068.09
2018-10-07T06:35:38.791Z,98075.69
2018-10-07T06:38:07.115Z,98079.69
2018-10-07T06:40:35.507Z,98081.27
2018-10-07T06:43:03.933Z,98077.96
2018-10-07T06:45:32.300Z,98077.46
2018-10-07T06:48:00.557Z,98089.79
2018-10-07T06:50:29.173Z,98082.92
2018-10-07T06:52:57.795Z,98088.14
2018-10-07T06:55:26.377Z,98097.19
2018-10-07T06:57:55.041Z,98094.98
2018-10-07T07:00:23.440Z,98101.61
2018-10-07T07:02:51.710Z,98103.35
2018-10-07T07:05:19.957Z,98107.78
2018-10-07T07:07:48.256Z,98107.38
2018-10-07T07:10:16.596Z,98105.23
2018-10-07T07:12:44.972Z,98106.58
2018-10-07T07:15:13.280Z,98109.73
2018-10-07T07:17:41.599Z,98119.52
2018-10-07T07:20:09.941Z,98117.76
2018-10-07T07:22:38.212Z,98121.84
2018-10-07T07:25:06.513Z,98127.97
2018-10-07T07:27:34.972Z,98133.91
2018-10-07T07:30:03.586Z,98132.42
2018-10-07T07:32:32.210Z,98143.70
2018-10-07T07:35:00.885Z,98133.69
2018-10-07T07:37:29.306Z,98140.75
2018-10-07T07:39:57.607Z,98136.86
2018-10-07T07:42:32.669Z,98139.52
2018-10-07T07:45:00.892Z,98144.77
2018-10-07T07:47:29.199Z,98154.08
2018-10-07T07:49:57.673Z,98154.37
2018-10-07T07:52:25.990Z,98166.05
2018-10-07T07:54:54.451Z,98163.91
2018-10-07T07:57:23.176Z,98167.70
2018-10-07T07:59:51.561Z,98181.22
2018-10-07T08:02:19.979Z,98179.95
2018-10-07T08:04:48.361Z,98183.96
2018-10-07T08:07:16.697Z,98186.87
2018-10-07T08:09:45.060Z,98185.58
2018-10-07T08:12:13.511Z,98184.23
2018-10-07T08:14:41.806Z,98184.02
2018-10-07T08:17:10.320Z,98188.06
2018-10-07T08:19:38.612Z,98194.63
2018-10-07T08:22:06.949Z,98194.52
2018-10-07T08:24:35.250Z,98195.75
2018-10-07T08:27:03.571Z,98195.73
2018-10-07T08:29:32.027Z,98193.91
2018-10-07T08:32:00.260Z,98192.44
2018-10-07T08:34:28.566Z,98194.83
2018-10-07T08:36:57.718Z,98195.78
2018-10-07T08:39:26.197Z,98197.97
2018-10-07T08:41:55.236Z,98201.20
2018-10-07T08:44:24.059Z,98199.96
2018-10-07T08:46:52.412Z,98204.86
2018-10-07T08:49:20.848Z,98205.62
2018-10-07T08:51:49.321Z,98207.30
2018-10-07T08:54:17.702Z,98208.64
2018-10-07T08:56:46.070Z,98214.30
2018-10-07T08:59:15.800Z,98217.36
2018-10-07T09:01:44.189Z,98210.19
2018-10-07T09:04:12.496Z,98218.28
2018-10-07T09:06:40.922Z,98215.12
2018-10-07T09:09:10.229Z,98224.89
2018-10-07T09:11:38.708Z,98223.95
2018-10-07T09:14:07.075Z,98225.54
2018-10-07T09:16:35.588Z,98225.46
2018-10-07T09:19:04.189Z,98227.55
2018-10-07T09:21:32.600Z,98218.48
2018-10-07T09:24:01.726Z,98223.31
2018-10-07T09:26:30.299Z,98221.11
2018-10-07T09:28:58.766Z,98231.95
2018-10-07T09:31:27.549Z,98226.55
2018-10-07T09:33:55.860Z,98235.63
2018-10-07T09:36:24.257Z,98248.27
2018-10-07T09:38:52.663Z,98249.41
2018-10-07T09:41:21.088Z,98259.19
2018-10-07T09:43:49.518Z,98252.02
2018-10-07T09:46:18.058Z,98250.16
2018-10-07T09:48:46.500Z,98245.79
2018-10-07T09:51:14.985Z,98249.98
2018-10-07T09:53:43.945Z,98251.56
2018-10-07T09:56:12.277Z,98246.55
2018-10-07T09:58:40.823Z,98255.91
2018-10-07T10:01:09.264Z,98255.36
2018-10-07T10:03:37.623Z,98256.21
2018-10-07T10:06:07.043Z,98262.38
2018-10-07T10:08:35.284Z,98253.75
2018-10-07T10:11:03.969Z,98258.67
2018-10-07T10:13:32.390Z,98255.03
2018-10-07T10:16:01.878Z,98251.38
2018-10-07T10:18:40.831Z,98252.88
2018-10-07T10:21:24.288Z,98248.65
2018-10-07T10:23:59.834Z,98243.05
2018-10-07T10:27:01.352Z,98246.86
2018-10-07T10:29:30.442Z,98245.21
2018-10-07T10:32:10.596Z,98250.91
2018-10-07T10:36:53.953Z,98254.02
2018-10-07T10:39:44.107Z,98254.21
2018-10-07T10:42:20.214Z,98250.64
2018-10-07T10:44:50.333Z,98250.00
2018-10-07T10:47:33.118Z,98243.51
2018-10-07T10:50:43.182Z,98238.94
2018-10-07T10:53:52.408Z,98244.08
2018-10-07T10:56:23.887Z,98246.41
2018-10-07T10:59:05.264Z,98242.14
2018-10-07T11:01:42.564Z,98237.18
2018-10-07T11:04:22.295Z,98237.39
2018-10-07T11:07:56.508Z,98238.30
2018-10-07T11:10:43.010Z,98232.53
2018-10-07T11:13:33.548Z,98227.63
2018-10-07T11:16:15.139Z,98229.67
2018-10-07T11:18:51.937Z,98224.02
2018-10-07T11:23:40.679Z,98224.67
2018-10-07T11:26:20.014Z,98227.64
2018-10-07T11:28:55.940Z,98232.01
2018-10-07T11:33:36.951Z,98229.94
2018-10-07T11:36:12.865Z,98226.27
2018-10-07T11:39:16.301Z,98221.48
2018-10-07T11:41:54.486Z,98219.84
2018-10-07T11:45:09.639Z,98219.24
2018-10-07T11:49:53.945Z,98214.12
2018-10-07T11:52:33.468Z,98217.41
2018-10-07T11:55:03.947Z,98215.63
2018-10-07T11:57:32.368Z,98223.31
2018-10-07T12:00:01.068Z,98221.01
2018-10-07T12:02:29.518Z,98218.47
2018-10-07T12:04:57.856Z,98223.07
2018-10-07T12:07:35.927Z,98215.10
2018-10-07T12:10:07.888Z,98222.59
2018-10-07T12:12:38.476Z,98220.73
2018-10-07T12:15:08.124Z,98216.41
2018-10-07T12:17:37.060Z,98217.77
2018-10-07T12:20:13.937Z,98219.79
2018-10-07T12:22:43.700Z,98220.49
2018-10-07T12:25:18.963Z,98225.13
2018-10-07T12:27:55.203Z,98225.04
2018-10-07T12:30:32.106Z,98226.63
2018-10-07T12:33:04.326Z,98221.86
2018-10-07T12:35:32.621Z,98232.46
2018-10-07T12:38:00.940Z,98228.79
2018-10-07T12:40:29.344Z,98231.66
2018-10-07T12:42:57.621Z,98230.31
2018-10-07T12:45:25.968Z,98234.61
2018-10-07T12:47:54.270Z,98237.73
2018-10-07T12:50:22.713Z,98234.38
2018-10-07T12:52:52.100Z,98236.90
2018-10-07T12:55:20.615Z,98230.39
2018-10-07T12:57:48.876Z,98237.17
2018-10-07T13:00:17.264Z,98237.02
2018-10-07T13:02:45.556Z,98238.80
2018-10-07T13:05:13.843Z,98234.56
2018-10-07T13:07:42.112Z,98240.47
2018-10-07T13:10:10.533Z,98238.13
2018-10-07T13:12:38.800Z,98233.19
2018-10-07T13:15:07.116Z,98233.79
2018-10-07T13:17:35.455Z,98229.95
2018-10-07T13:20:10.465Z,98238.22
2018-10-07T13:22:38.736Z,98237.89
2018-10-07T13:25:07.060Z,98244.02
2018-10-07T13:27:35.366Z,98243.52
2018-10-07T13:30:03.674Z,98239.35
2018-10-07T13:32:31.989Z,98246.91
2018-10-07T13:35:00.268Z,98248.13
2018-10-07T13:37:28.555Z,98241.96
2018-10-07T13:39:56.833Z,98246.52
2018-10-07T13:42:25.121Z,98245.05
2018-10-07T13:44:53.410Z,98240.31
2018-10-07T13:47:21.661Z,98246.25
2018-10-07T13:49:49.899Z,98244.55
2018-10-07T13:52:18.171Z,98253.51
2018-10-07T13:54:46.465Z,98245.37
2018-10-07T13:57:14.726Z,98243.44
2018-10-07T13:59:43.017Z,98242.14
2018-10-07T14:02:11.331Z,98239.44
2018-10-07T14:04:39.562Z,98237.16
2018-10-07T14:07:07.888Z,98236.86
2018-10-07T14:09:36.093Z,98243.45
2018-10-07T14:12:04.363Z,98247.97
2018-10-07T14:14:33.139Z,98249.18
2018-10-07T14:17:01.444Z,98239.12
2018-10-07T14:19:29.744Z,98237.78
2018-10-07T14:21:58.013Z,98237.07
2018-10-07T14:24:26.319Z,98242.83
2018-10-07T14:26:54.629Z,98233.48
2018-10-07T14:29:22.928Z,98246.25
2018-10-07T14:31:51.238Z,98239.10
2018-10-07T14:34:19.484Z,98237.42
2018-10-07T14:36:47.834Z,98235.97
2018-10-07T14:39:16.164Z,98243.78
2018-10-07T14:41:44.411Z,98242.47
2018-10-07T14:44:12.722Z,98241.66
2018-10-07T14:46:41.085Z,98246.34
2018-10-07T14:49:09.439Z,98236.98
2018-10-07T14:51:37.761Z,98232.95
2018-10-07T14:54:06.101Z,98235.05
2018-10-07T14:56:34.387Z,98241.70
2018-10-07T14:59:02.698Z,98241.89
2018-10-07T15:01:31.016Z,98245.94
2018-10-07T15:03:59.256Z,98249.45
2018-10-07T15:06:27.558Z,98242.06
2018-10-07T15:08:55.843Z,98242.85
2018-10-07T15:11:24.176Z,98242.65
2018-10-07T15:13:52.416Z,98249.69
2018-10-07T15:16:20.687Z,98246.92
2018-10-07T15:18:49.098Z,98252.05
2018-10-07T15:21:17.495Z,98255.20
2018-10-07T15:23:45.829Z,98248.59
2018-10-07T15:26:14.090Z,98253.11
2018-10-07T15:28:42.364Z,98259.41
2018-10-07T15:31:10.692Z,98259.90
2018-10-07T15:33:38.972Z,98266.85
2018-10-07T15:36:07.266Z,98261.34
2018-10-07T15:38:35.536Z,98266.03
2018-10-07T15:41:03.999Z,98269.95
2018-10-07T15:43:37.054Z,98269.36
2018-10-07T15:46:05.623Z,98268.47
2018-10-07T15:48:34.160Z,98269.36
2018-10-07T15:51:02.421Z,98275.90
2018-10-07T15:53:31.121Z,98284.80
2018-10-07T15:56:00.530Z,98282.99
2018-10-07T15:58:29.198Z,98292.35
2018-10-07T16:00:57.829Z,98295.30
2018-10-07T16:03:26.634Z,98291.19
2018-10-07T16:05:54.923Z,98294.47
2018-10-07T16:08:23.225Z,98297.49
2018-10-07T16:10:51.507Z,98297.92
2018-10-07T16:13:19.783Z,98297.72
2018-10-07T16:15:48.602Z,98299.50
2018-10-07T16:18:16.979Z,98304.34
2018-10-07T16:20:45.300Z,98306.88
2018-10-07T16:23:13.700Z,98317.17
2018-10-07T16:25:42.150Z,98313.16
2018-10-07T16:28:10.579Z,98318.19
2018-10-07T16:30:39.140Z,98316.27
2018-10-07T16:33:07.437Z,98313.32
2018-10-07T16:35:35.872Z,98318.41
2018-10-07T16:38:04.173Z,98320.56
2018-10-07T16:40:32.595Z,98325.02
2018-10-07T16:43:01.303Z,98334.31
2018-10-07T16:45:29.578Z,98334.07
2018-10-07T16:47:57.956Z,98336.37
2018-10-07T16:50:26.271Z,98343.48
2018-10-07T16:52:55.696Z,98348.66
2018-10-07T16:55:24.067Z,98354.33
2018-10-07T16:57:52.524Z,98357.22
2018-10-07T17:00:20.952Z,98358.65
2018-10-07T17:02:49.478Z,98357.43
2018-10-07T17:05:17.961Z,98364.53
2018-10-07T17:07:46.471Z,98361.19
2018-10-07T17:10:14.863Z,98364.34
2018-10-07T17:12:43.372Z,98374.00
2018-10-07T17:15:12.273Z,98372.17
2018-10-07T17:17:40.567Z,98374.47
2018-10-07T17:20:08.838Z,98380.48
2018-10-07T17:22:37.158Z,98384.09
2018-10-07T17:25:05.564Z,98385.58
2018-10-07T17:27:34.333Z,98398.96
2018-10-07T17:30:02.841Z,98394.53
2018-10-07T17:32:32.153Z,98397.06
2018-10-07T17:35:00.476Z,98404.23
2018-10-07T17:37:28.785Z,98406.69
2018-10-07T17:39:57.158Z,98405.84
2018-10-07T17:42:25.817Z,98410.30
2018-10-07T17:44:54.701Z,98412.75
2018-10-07T17:47:23.665Z,98430.41
2018-10-07T17:49:52.156Z,98426.95
2018-10-07T17:52:20.665Z,98436.27
2018-10-07T17:54:48.993Z,98433.25
2018-10-07T17:57:17.544Z,98433.61
2018-10-07T17:59:46.081Z,98439.28
2018-10-07T18:02:14.369Z,98435.42
2018-10-07T18:04:42.684Z,98446.39
2018-10-07T18:07:11.223Z,98445.63
2018-10-07T18:09:39.550Z,98457.52
2018-10-07T18:12:08.008Z,98452.09
2018-10-07T18:14:37.084Z,98463.09
2018-10-07T18:17:07.838Z,98466.42
2018-10-07T18:19:36.174Z,98467.45
2018-10-07T18:22:04.644Z,98469.51
2018-10-07T18:24:33.481Z,98469.81
2018-10-07T18:27:01.892Z,98473.98
2018-10-07T18:29:30.212Z,98478.34
2018-10-07T18:31:58.572Z,98480.70
2018-10-07T18:34:26.959Z,98480.86
2018-10-07T18:36:56.366Z,98490.36
2018-10-07T18:39:32.996Z,98493.30
2018-10-07T18:42:05.022Z,98495.20
2018-10-07T18:44:36.171Z,98495.24
2018-10-07T18:47:05.653Z,98497.98
2018-10-07T18:49:38.934Z,98506.60
2018-10-07T18:52:10.072Z,98509.48
2018-10-07T18:54:39.246Z,98509.07
2018-10-07T18:57:07.979Z,98511.47
2018-10-07T18:59:36.393Z,98518.59
2018-10-07T19:02:05.310Z,98516.42
2018-10-07T19:04:34.235Z,98520.78
2018-10-07T19:07:02.534Z,98524.33
2018-10-07T19:09:30.909Z,98529.61
2018-10-07T19:11:59.591Z,98531.20
2018-10-07T19:14:28.149Z,98539.72
2018-10-07T19:16:56.487Z,98537.95
2018-10-07T19:19:24.763Z,98545.34
2018-10-07T19:21:53.180Z,98543.03
2018-10-07T19:24:22.544Z,98544.52
2018-10-07T19:26:50.965Z,98550.42
2018-10-07T19:29:19.241Z,98549.03
2018-10-07T19:31:47.546Z,98559.58
2018-10-07T19:34:16.024Z,98552.27
2018-10-07T19:36:44.518Z,98570.38
2018-10-07T19:39:13.127Z,98569.86
2018-10-07T19:41:42.223Z,98572.91
2018-10-07T19:44:10.655Z,98584.12
2018-10-07T19:46:39.030Z,98587.31
2018-10-07T19:49:07.423Z,98577.23
2018-10-07T19:51:36.061Z,98593.68
2018-10-07T19:54:04.417Z,98590.20
2018-10-07T19:56:32.680Z,98591.48
2018-10-07T19:59:01.149Z,98594.87
2018-10-07T20:01:29.515Z,98587.62
2018-10-07T20:03:57.892Z,98592.33
2018-10-07T20:06:26.776Z,98598.33
2018-10-07T20:08:55.023Z,98603.80
2018-10-07T20:11:23.423Z,98603.09
2018-10-07T20:13:51.877Z,98613.52
2018-10-07T20:16:20.214Z,98613.94
2018-10-07T20:18:48.538Z,98608.75
2018-10-07T20:21:16.975Z,98615.92
2018-10-07T20:23:45.393Z,98611.75
2018-10-07T20:26:13.884Z,98615.32
2018-10-07T20:28:42.183Z,98607.28
2018-10-07T20:31:10.448Z,98619.79
2018-10-07T20:33:38.751Z,98625.39
2018-10-07T20:36:07.350Z,98629.63
2018-10-07T20:38:35.694Z,98626.45
2018-10-07T20:41:04.280Z,98632.56
2018-10-07T20:43:32.543Z,98636.88
2018-10-07T20:46:00.862Z,98635.36
2018-10-07T20:48:29.244Z,98637.73
2018-10-07T20:50:57.662Z,98638.39
2018-10-07T20:53:26.088Z,98636.37
2018-10-07T20:55:54.414Z,98633.70
2018-10-07T20:58:23.038Z,98635.42
2018-10-07T21:00:51.514Z,98632.95
2018-10-07T21:03:20.005Z,98638.02
2018-10-07T21:05:48.749Z,98641.38
2018-10-07T21:08:17.955Z,98641.68
2018-10-07T21:10:46.784Z,98644.64
2018-10-07T21:13:15.206Z,98648.48
2018-10-07T21:15:43.652Z,98650.45
2018-10-07T21:18:12.062Z,98646.94
2018-10-07T21:20:40.484Z,98655.56
2018-10-07T21:23:08.946Z,98654.32
2018-10-07T21:25:37.377Z,98662.41
2018-10-07T21:28:06.515Z,98661.77
2018-10-07T21:30:34.876Z,98659.48
2018-10-07T21:33:04.493Z,98662.00
2018-10-07T21:35:33.308Z,98666.27
2018-10-07T21:38:01.932Z,98667.72
2018-10-07T21:40:31.553Z,98673.97
2018-10-07T21:42:59.976Z,98672.45
2018-10-07T21:45:28.732Z,98668.16
2018-10-07T21:47:57.013Z,98662.34
2018-10-07T21:50:25.520Z,98668.72
2018-10-07T21:52:59.253Z,98671.20
2018-10-07T21:55:28.647Z,98665.23
2018-10-07T21:57:57.317Z,98665.23
2018-10-07T22:00:25.794Z,98657.52
2018-10-07T22:02:55.137Z,98661.60
2018-10-07T22:05:23.610Z,98660.23
2018-10-07T22:07:51.867Z,98665.44
2018-10-07T22:10:20.215Z,98667.23
2018-10-07T22:12:48.827Z,98670.39
2018-10-07T22:15:17.194Z,98667.06
2018-10-07T22:17:46.562Z,98659.97
2018-10-07T22:20:14.941Z,98657.31
2018-10-07T22:22:45.360Z,98662.34
2018-10-07T22:25:30.308Z,98664.75
2018-10-07T22:27:58.839Z,98660.32
2018-10-07T22:30:27.592Z,98657.50
2018-10-07T22:32:56.920Z,98657.61
2018-10-07T22:35:30.796Z,98658.90
2018-10-07T22:38:02.620Z,98665.24
2018-10-07T22:40:31.184Z,98666.42
2018-10-07T22:42:59.919Z,98664.27
2018-10-07T22:45:28.357Z,98659.69
2018-10-07T22:47:56.748Z,98665.92
2018-10-07T22:50:25.243Z,98675.23
2018-10-07T22:52:53.731Z,98674.87
2018-10-07T22:55:22.166Z,98672.22
2018-10-07T22:57:50.580Z,98678.20
2018-10-07T23:00:19.122Z,98677.77
2018-10-07T23:02:47.484Z,98681.91
2018-10-07T23:05:15.949Z,98676.98
2018-10-07T23:07:44.402Z,98676.19
2018-10-07T23:10:12.824Z,98680.27
2018-10-07T23:12:41.284Z,98675.36
2018-10-07T23:15:10.459Z,98673.24
2018-10-07T23:17:38.959Z,98673.88
2018-10-07T23:20:07.494Z,98677.13
2018-10-07T23:22:35.920Z,98672.63
2018-10-07T23:25:04.385Z,98676.70
2018-10-07T23:27:32.882Z,98682.13
2018-10-07T23:30:03.418Z,98677.85
2018-10-07T23:32:31.887Z,98683.80
2018-10-07T23:35:00.271Z,98684.95
2018-10-07T23:37:28.837Z,98686.47
2018-10-07T23:39:57.236Z,98686.59
2018-10-07T23:42:26.362Z,98684.93
2018-10-07T23:44:54.786Z,98680.28
2018-10-07T23:47:23.296Z,98683.08
2018-10-07T23:49:54.861Z,98681.55
2018-10-07T23:52:23.392Z,98685.14
2018-10-07T23:54:51.806Z,98692.50
2018-10-07T23:57:20.197Z,98688.47
2018-10-07T23:59:48.683Z,98688.25
